createdAt,value
2018-04-17T00:00:28.389Z,15.30
2018-04-17T00:02:55.939Z,7.37
2018-04-17T00:05:23.413Z,7.57
2018-04-17T00:07:50.933Z,7.57
2018-04-17T00:10:18.410Z,5.20
2018-04-17T00:12:45.905Z,5.20
2018-04-17T00:15:13.417Z,9.33
2018-04-17T00:17:40.893Z,6.03
2018-04-17T00:20:08.400Z,8.40
2018-04-17T00:22:35.881Z,13.43
2018-04-17T00:25:03.365Z,7.73
2018-04-17T00:27:30.867Z,4.93
2018-04-17T00:29:58.344Z,4.60
2018-04-17T00:32:25.895Z,7.17
2018-04-17T00:34:53.382Z,5.90
2018-04-17T00:37:20.865Z,6.10
2018-04-17T00:39:48.361Z,5.33
2018-04-17T00:42:15.844Z,13.77
2018-04-17T00:44:43.387Z,5.73
2018-04-17T00:47:10.861Z,6.60
2018-04-17T00:49:38.352Z,4.90
2018-04-17T00:52:05.857Z,9.53
2018-04-17T00:54:33.565Z,6.93
2018-04-17T00:57:01.082Z,7.73
2018-04-17T00:59:28.558Z,7.03
2018-04-17T01:01:56.049Z,8.53
2018-04-17T01:04:23.588Z,7.73
2018-04-17T01:06:51.076Z,8.07
2018-04-17T01:09:18.733Z,7.73
2018-04-17T01:11:46.217Z,9.03
2018-04-17T01:14:13.789Z,9.10
2018-04-17T01:16:41.293Z,7.70
2018-04-17T01:19:08.772Z,7.93
2018-04-17T01:21:36.529Z,9.43
2018-04-17T01:24:04.313Z,11.90
2018-04-17T01:26:31.855Z,7.60
2018-04-17T01:28:59.369Z,8.13
2018-04-17T01:31:26.853Z,16.23
2018-04-17T01:33:54.381Z,6.43
2018-04-17T01:36:21.855Z,7.83
2018-04-17T01:38:49.333Z,8.53
2018-04-17T01:41:16.837Z,8.10
2018-04-17T01:43:44.316Z,13.93
2018-04-17T01:46:11.836Z,8.83
2018-04-17T01:48:39.335Z,6.30
2018-04-17T01:51:06.833Z,9.20
2018-04-17T01:53:34.341Z,5.37
2018-04-17T01:56:01.821Z,6.43
2018-04-17T01:58:29.442Z,5.63
2018-04-17T02:00:56.973Z,5.50
2018-04-17T02:03:24.449Z,5.80
2018-04-17T02:05:51.971Z,6.30
2018-04-17T02:08:19.463Z,5.20
2018-04-17T02:10:47.230Z,6.73
2018-04-17T02:13:14.733Z,5.60
2018-04-17T02:15:42.209Z,6.83
2018-04-17T02:18:09.709Z,4.70
2018-04-17T02:20:37.193Z,7.10
2018-04-17T02:23:04.970Z,11.67
2018-04-17T02:25:32.449Z,5.30
2018-04-17T02:27:59.942Z,8.87
2018-04-17T02:30:27.445Z,5.47
2018-04-17T02:32:54.955Z,4.73
2018-04-17T02:35:22.485Z,7.53
2018-04-17T02:37:49.966Z,8.50
2018-04-17T02:40:17.461Z,4.87
2018-04-17T02:42:44.994Z,10.27
2018-04-17T02:45:12.493Z,4.47
2018-04-17T02:47:40.287Z,5.27
2018-04-17T02:50:07.762Z,7.00
2018-04-17T02:52:35.261Z,4.43
2018-04-17T02:55:02.761Z,5.03
2018-04-17T02:57:30.261Z,8.33
2018-04-17T02:59:57.961Z,7.97
2018-04-17T03:02:25.439Z,5.30
2018-04-17T03:04:52.957Z,6.10
2018-04-17T03:07:20.477Z,6.20
2018-04-17T03:09:47.956Z,4.97
2018-04-17T03:12:15.711Z,5.10
2018-04-17T03:14:43.185Z,5.37
2018-04-17T03:17:10.681Z,5.13
2018-04-17T03:19:38.189Z,6.80
2018-04-17T03:22:05.665Z,6.37
2018-04-17T03:24:33.367Z,7.13
2018-04-17T03:27:00.844Z,5.40
2018-04-17T03:29:28.325Z,6.00
2018-04-17T03:31:55.824Z,5.70
2018-04-17T03:34:23.309Z,5.60
2018-04-17T03:36:50.821Z,6.57
2018-04-17T03:39:18.309Z,7.67
2018-04-17T03:41:45.785Z,5.93
2018-04-17T03:44:13.282Z,5.40
2018-04-17T03:46:40.777Z,5.60
2018-04-17T03:49:08.550Z,6.33
2018-04-17T03:51:36.057Z,6.00
2018-04-17T03:54:03.533Z,5.70
2018-04-17T03:56:31.038Z,5.90
2018-04-17T03:58:58.521Z,6.60
2018-04-17T04:01:26.196Z,5.50
2018-04-17T04:03:53.675Z,6.50
2018-04-17T04:06:21.157Z,6.07
2018-04-17T04:08:48.662Z,10.97
2018-04-17T04:11:16.171Z,5.70
2018-04-17T04:13:43.957Z,7.43
2018-04-17T04:16:23.173Z,5.30
2018-04-17T04:19:02.686Z,8.30
2018-04-17T04:21:42.017Z,7.30
2018-04-17T04:24:21.557Z,5.73
2018-04-17T04:26:49.047Z,5.60
2018-04-17T04:29:17.514Z,10.83
2018-04-17T04:31:45.009Z,7.20
2018-04-17T04:34:12.488Z,5.20
2018-04-17T04:36:40.237Z,7.23
2018-04-17T04:39:07.734Z,11.43
2018-04-17T04:41:35.222Z,8.63
2018-04-17T04:44:02.721Z,9.10
2018-04-17T04:46:30.202Z,6.43
2018-04-17T04:48:58.098Z,7.43
2018-04-17T04:51:25.615Z,9.73
2018-04-17T04:53:53.104Z,27.70
2018-04-17T04:56:20.605Z,8.13
2018-04-17T04:58:48.118Z,12.60
2018-04-17T05:01:15.957Z,5.63
2018-04-17T05:03:43.437Z,6.87
2018-04-17T05:06:10.922Z,13.20
2018-04-17T05:08:38.437Z,10.10
2018-04-17T05:11:05.908Z,6.70
2018-04-17T05:13:33.613Z,23.37
2018-04-17T05:16:01.089Z,15.80
2018-04-17T05:18:28.596Z,8.20
2018-04-17T05:20:56.101Z,9.40
2018-04-17T05:23:23.612Z,7.63
2018-04-17T05:25:51.127Z,5.80
2018-04-17T05:28:18.613Z,9.20
2018-04-17T05:30:46.087Z,5.10
2018-04-17T05:33:13.597Z,9.50
2018-04-17T05:35:41.083Z,7.17
2018-04-17T05:38:08.825Z,6.63
2018-04-17T05:40:36.309Z,5.43
2018-04-17T05:43:03.798Z,6.90
2018-04-17T05:45:31.313Z,9.07
2018-04-17T05:47:58.799Z,12.27
2018-04-17T05:50:26.477Z,12.33
2018-04-17T05:52:53.953Z,6.57
2018-04-17T05:55:21.435Z,5.80
2018-04-17T05:57:48.942Z,8.03
2018-04-17T06:00:16.425Z,8.33
2018-04-17T06:02:44.349Z,10.37
2018-04-17T06:05:11.853Z,7.83
2018-04-17T06:07:39.334Z,13.63
2018-04-17T06:10:06.869Z,8.23
2018-04-17T06:12:34.451Z,8.47
2018-04-17T06:15:02.031Z,8.07
2018-04-17T06:17:29.517Z,10.70
2018-04-17T06:19:57.025Z,8.43
2018-04-17T06:22:24.552Z,17.07
2018-04-17T06:24:52.029Z,7.30
2018-04-17T06:27:19.748Z,6.80
2018-04-17T06:29:47.242Z,6.90
2018-04-17T06:32:14.737Z,7.73
2018-04-17T06:34:42.241Z,7.73
2018-04-17T06:37:09.722Z,10.83
2018-04-17T06:39:37.253Z,12.23
2018-04-17T06:42:04.811Z,11.83
2018-04-17T06:44:32.305Z,6.97
2018-04-17T06:46:59.816Z,10.53
2018-04-17T06:49:27.313Z,6.83
2018-04-17T06:51:54.984Z,12.50
2018-04-17T06:54:22.469Z,6.53
2018-04-17T06:56:49.977Z,7.47
2018-04-17T06:59:17.489Z,6.67
2018-04-17T07:01:44.965Z,6.63
2018-04-17T07:04:12.616Z,9.57
2018-04-17T07:06:40.108Z,11.30
2018-04-17T07:09:07.595Z,8.10
2018-04-17T07:11:35.126Z,7.60
2018-04-17T07:14:02.617Z,10.80
2018-04-17T07:16:30.269Z,7.13
2018-04-17T07:18:57.745Z,8.60
2018-04-17T07:21:25.234Z,11.13
2018-04-17T07:23:52.741Z,9.10
2018-04-17T07:26:20.229Z,14.47
2018-04-17T07:28:47.777Z,7.63
2018-04-17T07:31:15.253Z,7.20
2018-04-17T07:33:42.746Z,8.07
2018-04-17T07:36:10.249Z,8.33
2018-04-17T07:38:37.726Z,8.43
2018-04-17T07:41:05.241Z,10.77
2018-04-17T07:43:32.726Z,11.57
2018-04-17T07:46:00.217Z,10.67
2018-04-17T07:48:39.721Z,9.10
2018-04-17T07:51:07.209Z,9.03
2018-04-17T07:53:34.792Z,13.63
2018-04-17T07:56:02.289Z,10.30
2018-04-17T07:58:29.773Z,21.87
2018-04-17T08:00:57.281Z,10.53
2018-04-17T08:03:24.777Z,14.93
2018-04-17T08:05:52.462Z,18.50
2018-04-17T08:08:19.967Z,16.23
2018-04-17T08:10:47.453Z,12.10
2018-04-17T08:13:14.961Z,15.47
2018-04-17T08:15:42.449Z,12.70
2018-04-17T08:18:10.118Z,20.50
2018-04-17T08:20:37.601Z,15.43
2018-04-17T08:23:05.106Z,10.10
2018-04-17T08:25:32.622Z,18.93
2018-04-17T08:28:00.280Z,19.90
2018-04-17T08:30:27.813Z,13.00
2018-04-17T08:32:55.297Z,11.70
2018-04-17T08:35:22.789Z,12.70
2018-04-17T08:37:50.309Z,12.20
2018-04-17T08:40:17.809Z,16.10
2018-04-17T08:42:45.387Z,15.50
2018-04-17T08:45:12.847Z,15.53
2018-04-17T08:47:40.338Z,20.23
2018-04-17T08:50:07.881Z,17.17
2018-04-17T08:52:35.379Z,17.10
2018-04-17T08:55:03.193Z,22.87
2018-04-17T08:57:30.821Z,20.13
2018-04-17T08:59:58.309Z,27.80
2018-04-17T09:02:25.852Z,29.10
2018-04-17T09:04:53.469Z,18.10
2018-04-17T09:07:21.161Z,19.53
2018-04-17T09:09:48.653Z,18.33
2018-04-17T09:12:16.149Z,33.07
2018-04-17T09:14:43.674Z,33.30
2018-04-17T09:17:11.166Z,33.77
2018-04-17T09:19:38.714Z,23.40
2018-04-17T09:22:06.215Z,28.33
2018-04-17T09:24:33.727Z,21.93
2018-04-17T09:27:01.249Z,29.20
2018-04-17T09:29:28.737Z,37.63
2018-04-17T09:31:56.364Z,28.77
2018-04-17T09:34:23.849Z,30.20
2018-04-17T09:36:51.337Z,23.83
2018-04-17T09:39:18.871Z,26.17
2018-04-17T09:41:46.357Z,34.57
2018-04-17T09:44:14.018Z,24.67
2018-04-17T09:46:41.608Z,43.47
2018-04-17T09:49:09.098Z,23.23
2018-04-17T09:51:36.632Z,24.43
2018-04-17T09:54:04.122Z,29.97
2018-04-17T09:56:31.648Z,26.17
2018-04-17T09:58:59.178Z,28.50
2018-04-17T10:01:26.665Z,25.83
2018-04-17T10:03:54.188Z,19.77
2018-04-17T10:06:21.697Z,27.33
2018-04-17T10:08:49.488Z,26.43
2018-04-17T10:11:16.929Z,29.70
2018-04-17T10:13:44.421Z,16.47
2018-04-17T10:16:11.965Z,18.73
2018-04-17T10:18:39.453Z,22.60
2018-04-17T10:21:07.177Z,19.70
2018-04-17T10:23:34.677Z,11.87
2018-04-17T10:26:02.168Z,13.23
2018-04-17T10:28:29.681Z,7.90
2018-04-17T10:30:57.180Z,16.00
2018-04-17T10:33:24.742Z,12.47
2018-04-17T10:35:52.232Z,4.20
2018-04-17T10:38:19.713Z,5.90
2018-04-17T10:40:47.217Z,7.70
2018-04-17T10:43:14.701Z,9.90
2018-04-17T10:45:42.313Z,11.63
2018-04-17T10:48:09.793Z,16.37
2018-04-17T10:50:37.273Z,11.00
2018-04-17T10:53:04.780Z,14.33
2018-04-17T10:55:32.285Z,19.53
2018-04-17T10:58:00.085Z,11.03
2018-04-17T11:00:27.568Z,6.63
2018-04-17T11:02:55.059Z,12.20
2018-04-17T11:05:22.604Z,10.30
2018-04-17T11:07:50.093Z,10.93
2018-04-17T11:10:17.793Z,24.13
2018-04-17T11:12:45.289Z,10.60
2018-04-17T11:15:12.772Z,9.93
2018-04-17T11:17:40.272Z,9.33
2018-04-17T11:20:07.769Z,11.43
2018-04-17T11:22:35.541Z,8.47
2018-04-17T11:25:03.048Z,7.30
2018-04-17T11:27:30.534Z,9.97
2018-04-17T11:29:58.057Z,8.80
2018-04-17T11:32:25.541Z,11.23
2018-04-17T11:34:53.369Z,9.07
2018-04-17T11:37:20.851Z,7.63
2018-04-17T11:39:48.338Z,7.77
2018-04-17T11:42:15.842Z,9.17
2018-04-17T11:44:43.339Z,12.37
2018-04-17T11:47:10.953Z,6.60
2018-04-17T11:49:38.452Z,8.40
2018-04-17T11:52:05.942Z,15.57
2018-04-17T11:54:33.481Z,6.07
2018-04-17T11:57:00.969Z,29.57
2018-04-17T11:59:28.583Z,6.23
2018-04-17T12:01:56.073Z,11.90
2018-04-17T12:04:23.602Z,4.93
2018-04-17T12:06:51.113Z,10.00
2018-04-17T12:09:18.610Z,15.97
2018-04-17T12:11:46.377Z,9.43
2018-04-17T12:14:13.860Z,9.20
2018-04-17T12:16:41.353Z,11.10
2018-04-17T12:19:08.861Z,14.33
2018-04-17T12:21:36.338Z,6.93
2018-04-17T12:24:04.129Z,3.23
2018-04-17T12:26:31.632Z,6.43
2018-04-17T12:28:59.117Z,10.90
2018-04-17T12:31:26.621Z,6.10
2018-04-17T12:33:54.136Z,5.80
2018-04-17T12:36:22.089Z,5.77
2018-04-17T12:38:49.578Z,9.90
2018-04-17T12:41:17.069Z,4.60
2018-04-17T12:43:44.581Z,8.70
2018-04-17T12:46:12.062Z,2.77
2018-04-17T12:48:39.589Z,2.50
2018-04-17T12:51:07.081Z,11.93
2018-04-17T12:53:34.561Z,4.23
2018-04-17T12:56:02.082Z,4.10
2018-04-17T12:58:29.577Z,3.73
2018-04-17T13:00:57.411Z,18.33
2018-04-17T13:03:24.904Z,2.50
2018-04-17T13:05:52.385Z,5.30
2018-04-17T13:08:19.898Z,2.30
2018-04-17T13:10:47.378Z,3.80
2018-04-17T13:13:15.086Z,2.47
2018-04-17T13:15:42.631Z,10.10
2018-04-17T13:18:10.077Z,5.93
2018-04-17T13:20:37.619Z,8.30
2018-04-17T13:23:05.106Z,7.00
2018-04-17T13:25:32.813Z,4.70
2018-04-17T13:28:00.306Z,3.40
2018-04-17T13:30:27.789Z,5.13
2018-04-17T13:32:55.309Z,7.53
2018-04-17T13:35:22.805Z,5.30
2018-04-17T13:37:50.338Z,2.90
2018-04-17T13:40:17.853Z,17.70
2018-04-17T13:42:45.353Z,10.33
2018-04-17T13:45:12.861Z,2.70
2018-04-17T13:47:40.377Z,6.37
2018-04-17T13:50:07.895Z,6.50
2018-04-17T13:52:35.385Z,9.70
2018-04-17T13:55:02.871Z,4.03
2018-04-17T13:57:30.377Z,9.80
2018-04-17T13:59:57.861Z,13.30
2018-04-17T14:02:25.405Z,3.40
2018-04-17T14:04:52.934Z,3.57
2018-04-17T14:07:20.425Z,3.67
2018-04-17T14:09:47.971Z,2.40
2018-04-17T14:12:15.461Z,4.90
2018-04-17T14:14:43.641Z,6.57
2018-04-17T14:17:11.182Z,15.10
2018-04-17T14:19:38.649Z,4.90
2018-04-17T14:22:06.161Z,3.90
2018-04-17T14:24:33.653Z,3.60
2018-04-17T14:27:01.307Z,5.80
2018-04-17T14:29:28.793Z,3.27
2018-04-17T14:31:56.310Z,10.93
2018-04-17T14:34:23.821Z,3.77
2018-04-17T14:36:51.325Z,3.80
2018-04-17T14:39:18.838Z,8.77
2018-04-17T14:41:46.321Z,9.03
2018-04-17T14:44:13.813Z,8.47
2018-04-17T14:46:41.319Z,3.40
2018-04-17T14:49:08.801Z,1.80
2018-04-17T14:51:36.612Z,14.60
2018-04-17T14:54:04.106Z,2.13
2018-04-17T14:56:31.589Z,3.83
2018-04-17T14:58:59.097Z,2.13
2018-04-17T15:01:26.637Z,4.67
2018-04-17T15:03:54.289Z,7.03
2018-04-17T15:06:21.770Z,5.47
2018-04-17T15:08:49.300Z,3.70
2018-04-17T15:11:16.789Z,3.00
2018-04-17T15:13:44.294Z,4.47
2018-04-17T15:16:12.045Z,6.27
2018-04-17T15:18:39.537Z,4.83
2018-04-17T15:21:07.017Z,6.03
2018-04-17T15:23:34.596Z,10.93
2018-04-17T15:26:02.073Z,4.80
2018-04-17T15:28:29.590Z,5.37
2018-04-17T15:30:57.097Z,3.80
2018-04-17T15:33:24.586Z,4.17
2018-04-17T15:35:52.117Z,5.90
2018-04-17T15:38:19.641Z,3.00
2018-04-17T15:40:47.347Z,6.57
2018-04-17T15:43:14.833Z,8.97
2018-04-17T15:45:42.398Z,5.13
2018-04-17T15:48:09.910Z,13.23
2018-04-17T15:50:37.393Z,11.73
2018-04-17T15:53:05.294Z,11.63
2018-04-17T15:55:32.780Z,7.00
2018-04-17T15:58:00.261Z,6.50
2018-04-17T16:00:27.765Z,6.80
2018-04-17T16:02:55.249Z,11.80
2018-04-17T16:05:22.777Z,9.63
2018-04-17T16:07:50.267Z,5.33
2018-04-17T16:10:17.757Z,4.90
2018-04-17T16:12:45.285Z,10.70
2018-04-17T16:15:12.775Z,11.67
2018-04-17T16:17:40.714Z,5.13
2018-04-17T16:20:08.250Z,8.90
2018-04-17T16:22:35.737Z,7.80
2018-04-17T16:25:03.258Z,9.90
2018-04-17T16:27:30.750Z,9.37
2018-04-17T16:29:58.692Z,9.30
2018-04-17T16:32:26.177Z,4.10
2018-04-17T16:34:53.665Z,6.33
2018-04-17T16:37:21.183Z,10.20
2018-04-17T16:39:48.687Z,9.70
2018-04-17T16:42:16.209Z,7.30
2018-04-17T16:44:43.689Z,6.70
2018-04-17T16:47:11.189Z,10.53
2018-04-17T16:49:38.708Z,17.57
2018-04-17T16:52:06.197Z,9.23
2018-04-17T16:54:33.705Z,8.33
2018-04-17T16:57:01.271Z,6.57
2018-04-17T16:59:28.756Z,10.00
2018-04-17T17:01:56.259Z,8.07
2018-04-17T17:04:23.789Z,12.27
2018-04-17T17:06:51.281Z,18.77
2018-04-17T17:09:18.805Z,8.07
2018-04-17T17:11:46.294Z,11.00
2018-04-17T17:14:13.787Z,8.20
2018-04-17T17:16:41.300Z,11.53
2018-04-17T17:19:08.785Z,5.27
2018-04-17T17:21:36.277Z,7.40
2018-04-17T17:24:03.809Z,18.97
2018-04-17T17:26:31.297Z,10.87
2018-04-17T17:28:58.778Z,9.07
2018-04-17T17:31:26.288Z,13.43
2018-04-17T17:33:53.773Z,9.50
2018-04-17T17:36:21.261Z,8.57
2018-04-17T17:38:48.790Z,12.80
2018-04-17T17:41:16.278Z,9.87
2018-04-17T17:43:43.777Z,12.13
2018-04-17T17:46:11.434Z,14.07
2018-04-17T17:48:38.940Z,11.87
2018-04-17T17:51:06.455Z,11.40
2018-04-17T17:53:34.000Z,16.07
2018-04-17T17:56:01.682Z,7.23
2018-04-17T17:58:29.201Z,10.57
2018-04-17T18:00:57.444Z,8.47
2018-04-17T18:03:24.934Z,14.03
2018-04-17T18:05:52.421Z,18.97
2018-04-17T18:08:20.247Z,12.93
2018-04-17T18:10:47.755Z,26.23
2018-04-17T18:13:16.045Z,11.43
2018-04-17T18:15:43.761Z,16.80
2018-04-17T18:18:11.281Z,10.33
2018-04-17T18:20:38.789Z,21.43
2018-04-17T18:23:06.355Z,9.00
2018-04-17T18:25:33.844Z,8.10
2018-04-17T18:28:01.330Z,8.33
2018-04-17T18:30:28.881Z,18.50
2018-04-17T18:32:57.885Z,20.23
2018-04-17T18:35:25.418Z,12.00
2018-04-17T18:37:52.947Z,8.10
2018-04-17T18:40:20.451Z,10.50
2018-04-17T18:42:48.792Z,18.00
2018-04-17T18:45:16.476Z,11.47
2018-04-17T18:47:43.984Z,10.43
2018-04-17T18:50:11.538Z,12.00
2018-04-17T18:52:39.985Z,9.13
2018-04-17T18:55:07.505Z,9.63
2018-04-17T18:57:35.027Z,9.83
2018-04-17T19:00:02.575Z,12.47
2018-04-17T19:02:30.095Z,10.67
2018-04-17T19:04:57.600Z,8.43
2018-04-17T19:07:26.014Z,16.23
2018-04-17T19:09:53.589Z,11.23
2018-04-17T19:12:21.631Z,12.17
2018-04-17T19:14:49.168Z,9.90
2018-04-17T19:17:16.749Z,15.77
2018-04-17T19:19:44.885Z,9.37
2018-04-17T19:22:13.385Z,8.83
2018-04-17T19:24:40.978Z,16.20
2018-04-17T19:27:08.916Z,11.23
2018-04-17T19:29:36.476Z,7.17
2018-04-17T19:32:03.983Z,7.87
2018-04-17T19:34:31.543Z,15.53
2018-04-17T19:36:59.110Z,8.83
2018-04-17T19:39:26.702Z,8.47
2018-04-17T19:41:54.222Z,11.90
2018-04-17T19:44:22.007Z,16.10
2018-04-17T19:46:49.591Z,7.60
2018-04-17T19:49:17.099Z,11.03
2018-04-17T19:51:45.130Z,14.07
2018-04-17T19:54:12.632Z,8.30
2018-04-17T19:56:40.130Z,10.10
2018-04-17T19:59:09.686Z,13.27
2018-04-17T20:01:37.201Z,11.43
2018-04-17T20:04:04.711Z,12.57
2018-04-17T20:06:32.237Z,8.70
2018-04-17T20:08:59.750Z,9.63
2018-04-17T20:11:27.346Z,15.40
2018-04-17T20:13:54.878Z,9.70
2018-04-17T20:16:22.366Z,8.50
2018-04-17T20:18:49.865Z,10.03
2018-04-17T20:21:17.530Z,10.23
2018-04-17T20:23:45.051Z,9.07
2018-04-17T20:26:12.572Z,10.80
2018-04-17T20:28:40.435Z,9.47
2018-04-17T20:31:07.942Z,8.57
2018-04-17T20:33:35.461Z,8.17
2018-04-17T20:36:02.996Z,12.23
2018-04-17T20:38:30.501Z,12.63
2018-04-17T20:40:58.001Z,9.30
2018-04-17T20:43:26.507Z,9.03
2018-04-17T20:45:54.001Z,14.80
2018-04-17T20:48:21.486Z,9.33
2018-04-17T20:50:49.397Z,9.00
2018-04-17T20:53:16.905Z,9.53
2018-04-17T20:55:44.394Z,9.60
2018-04-17T20:58:12.038Z,9.20
2018-04-17T21:00:39.546Z,12.80
2018-04-17T21:03:07.033Z,15.83
2018-04-17T21:05:34.830Z,11.67
2018-04-17T21:08:02.313Z,13.00
2018-04-17T21:10:29.817Z,13.97
2018-04-17T21:12:57.353Z,10.10
2018-04-17T21:15:24.850Z,10.10
2018-04-17T21:17:52.343Z,10.73
2018-04-17T21:20:20.069Z,11.33
2018-04-17T21:22:47.557Z,11.37
2018-04-17T21:25:15.050Z,11.90
2018-04-17T21:27:42.597Z,11.17
2018-04-17T21:30:10.085Z,8.87
2018-04-17T21:32:37.577Z,9.67
2018-04-17T21:35:05.294Z,9.73
2018-04-17T21:37:32.791Z,10.37
2018-04-17T21:40:00.299Z,10.00
2018-04-17T21:42:27.823Z,8.83
2018-04-17T21:44:55.317Z,10.30
2018-04-17T21:47:22.819Z,7.83
2018-04-17T21:49:50.341Z,12.83
2018-04-17T21:52:17.826Z,10.63
2018-04-17T21:54:45.309Z,11.10
2018-04-17T21:57:12.842Z,10.47
2018-04-17T21:59:40.348Z,9.90
2018-04-17T22:02:07.837Z,11.83
2018-04-17T22:04:35.349Z,15.80
2018-04-17T22:07:02.840Z,10.77
2018-04-17T22:09:30.693Z,29.30
2018-04-17T22:11:58.188Z,10.07
2018-04-17T22:14:25.674Z,11.17
2018-04-17T22:16:53.176Z,11.10
2018-04-17T22:19:20.693Z,12.77
2018-04-17T22:21:48.337Z,11.70
2018-04-17T22:24:15.833Z,11.23
2018-04-17T22:26:43.329Z,10.93
2018-04-17T22:29:10.853Z,11.23
2018-04-17T22:31:38.353Z,10.67
2018-04-17T22:34:06.110Z,10.70
2018-04-17T22:36:33.588Z,9.60
2018-04-17T22:39:01.077Z,11.27
2018-04-17T22:41:28.586Z,9.50
2018-04-17T22:43:56.089Z,16.67
2018-04-17T22:46:23.950Z,9.73
2018-04-17T22:48:51.465Z,22.00
2018-04-17T22:51:18.969Z,10.30
2018-04-17T22:53:46.522Z,11.50
2018-04-17T22:56:14.009Z,9.67
2018-04-17T22:58:41.666Z,9.43
2018-04-17T23:01:09.155Z,10.03
2018-04-17T23:03:36.641Z,16.40
2018-04-17T23:06:04.153Z,13.47
2018-04-17T23:08:31.641Z,11.53
2018-04-17T23:10:59.369Z,12.07
2018-04-17T23:13:26.858Z,8.97
2018-04-17T23:15:54.345Z,11.77
2018-04-17T23:18:21.853Z,10.73
2018-04-17T23:20:49.349Z,10.20
2018-04-17T23:23:17.026Z,21.63
2018-04-17T23:25:44.525Z,10.80
2018-04-17T23:28:12.022Z,11.27
2018-04-17T23:30:39.548Z,10.50
2018-04-17T23:33:07.041Z,11.93
2018-04-17T23:35:34.689Z,11.03
2018-04-17T23:38:02.165Z,9.43
2018-04-17T23:40:29.660Z,9.17
2018-04-17T23:42:57.169Z,11.13
2018-04-17T23:45:24.644Z,9.77
2018-04-17T23:47:52.341Z,11.00
2018-04-17T23:50:19.825Z,12.93
2018-04-17T23:52:47.333Z,11.03
2018-04-17T23:55:14.849Z,16.13
2018-04-17T23:57:42.337Z,11.53
